createdAt,value
2024-02-01T00:01:47.816Z,87.41719040628492
2024-02-01T00:06:24.371Z,87.9343367018214
2024-02-01T00:09:45.215Z,88.4501915473526
2024-02-01T00:13:05.697Z,88.8927426701334
2024-02-01T00:16:26.374Z,89.16600262570158
2024-02-01T00:19:46.390Z,89.60356055588329
2024-02-01T00:23:06.284Z,90.03915552665669
2024-02-01T00:26:26.769Z,90.16763626746852
2024-02-01T00:29:46.798Z,90.20480856284797
2024-02-01T00:34:32.462Z,91.0088808022429
2024-02-01T00:37:52.600Z,91.10264898022965
2024-02-01T00:41:12.974Z,91.01029607111768
2024-02-01T00:44:34.329Z,91.56216615371804
2024-02-01T00:54:29.126Z,92.20032199177759
2024-02-01T00:57:49.392Z,92.39824595285877
2024-02-01T01:02:07.549Z,92.57321487545673
2024-02-01T01:05:28.053Z,92.68434276846303
2024-02-01T01:08:48.283Z,92.86468478128164
2024-02-01T01:12:10.167Z,93.08031185569465
2024-02-01T01:15:30.918Z,93.06213221928536
2024-02-01T01:18:51.003Z,93.34065155878308
2024-02-01T01:22:11.242Z,93.82913428661617
2024-02-01T01:25:31.913Z,94.38195099062462
2024-02-01T01:28:52.200Z,94.86080664403516
2024-02-01T01:32:13.884Z,95.34862474877579
2024-02-01T01:41:02.525Z,96.46381123500453
2024-02-01T01:44:23.126Z,96.74139132040398
2024-02-01T01:49:06.044Z,97.09519036818658
2024-02-01T01:52:27.316Z,97.1854741874819
2024-02-01T01:55:47.108Z,97.3432617501304
2024-02-01T01:59:07.190Z,97.41561601256296
2024-02-01T02:02:27.853Z,97.41667043065765
2024-02-01T02:05:47.853Z,97.52001573127083
2024-02-01T02:09:07.907Z,97.53313472032585
2024-02-01T02:12:28.437Z,97.61707648612634
2024-02-01T02:15:48.594Z,97.68323216036617
2024-02-01T02:19:55.867Z,97.64675529819336
2024-02-01T02:23:18.170Z,97.6777450176523
2024-02-01T02:26:39.158Z,97.75564060684475
2024-02-01T02:29:59.189Z,97.76131368587271
2024-02-01T02:33:20.020Z,97.79957370869553
2024-02-01T02:40:24.471Z,97.82606985049294
2024-02-01T02:43:44.840Z,97.79671987113295
2024-02-01T02:47:05.430Z,97.87375381320594
2024-02-01T02:50:26.502Z,98.07153468535671
2024-02-01T02:54:00.455Z,98.17349156508908
2024-02-01T02:57:20.618Z,98.47066906782558
2024-02-01T03:00:41.061Z,98.67685115811251
2024-02-01T03:04:01.803Z,98.78033779819249
2024-02-01T03:07:22.755Z,98.8988014380595
2024-02-01T03:10:42.794Z,98.71788655233772
2024-02-01T03:14:03.095Z,98.54677212261636
2024-02-01T03:17:24.161Z,98.54679066139721
2024-02-01T03:25:31.051Z,98.22167940850534
2024-02-01T03:30:04.117Z,98.09051869160791
2024-02-01T03:33:25.054Z,97.8751588941009
2024-02-01T03:36:44.322Z,97.84300081011362
2024-02-01T03:40:04.476Z,97.78317152021803
2024-02-01T03:43:25.061Z,97.7767034110392
2024-02-01T03:46:45.441Z,97.50309037372944
2024-02-01T03:50:06.076Z,97.29085660793459
2024-02-01T03:54:48.071Z,96.97519569918134
2024-02-01T03:58:08.340Z,96.45157640623398
2024-02-01T04:01:29.334Z,96.09177742880019
2024-02-01T04:04:49.675Z,95.98291975393471
2024-02-01T04:08:10.400Z,95.6065875287205
2024-02-01T04:11:31.200Z,95.69111565077372
2024-02-01T04:18:01.831Z,95.82664839520602
2024-02-01T04:21:22.957Z,95.73757173377511
2024-02-01T04:24:44.037Z,95.51933448018067
2024-02-01T04:28:03.913Z,95.33507356693521
2024-02-01T04:33:41.470Z,95.21489265110685
2024-02-01T04:37:01.600Z,95.19850777412925
2024-02-01T04:40:22.449Z,94.96196540243983
2024-02-01T04:43:42.928Z,95.00988679773562
2024-02-01T04:47:03.202Z,95.01863742735446
2024-02-01T04:50:24.287Z,94.78668830597223
2024-02-01T04:53:44.583Z,94.62225246700312
2024-02-01T04:57:04.398Z,94.48487104709164
2024-02-01T05:00:24.659Z,94.71309792222084
2024-02-01T05:03:44.964Z,94.75134397544186
2024-02-01T05:07:05.368Z,94.94130194273752
2024-02-01T05:10:25.935Z,94.93869306398683
2024-02-01T05:13:46.512Z,95.00517085075666
2024-02-01T05:17:06.777Z,95.2925984683365
2024-02-01T05:20:27.973Z,95.34860072050915
2024-02-01T05:23:48.513Z,95.0096115815192
2024-02-01T05:27:08.152Z,94.85917620760945
2024-02-01T05:30:28.803Z,94.73481295355472
2024-02-01T05:33:49.269Z,94.68338089093574
2024-02-01T05:37:09.237Z,94.5451369096363
2024-02-01T05:40:29.700Z,94.55238872049502
2024-02-01T05:43:50.776Z,94.76013805815687
2024-02-01T05:47:11.563Z,94.82305814764712
2024-02-01T05:50:32.215Z,94.71381649450365
2024-02-01T05:53:52.449Z,94.715623306215
2024-02-01T05:59:40.478Z,94.53660490600156
2024-02-01T06:03:00.818Z,94.4138371893577
2024-02-01T06:08:59.322Z,94.20824004053682
2024-02-01T06:12:20.784Z,94.09507179132981
2024-02-01T06:15:40.677Z,94.07943433599218
2024-02-01T06:21:40.410Z,94.14105484678203
2024-02-01T06:25:01.062Z,94.04008696663233
2024-02-01T06:28:21.542Z,94.18522014642399
2024-02-01T06:31:41.689Z,94.29840799468417
2024-02-01T06:35:01.850Z,94.31323030759167
2024-02-01T06:38:23.581Z,94.20625667270312
2024-02-01T06:41:43.271Z,94.35085790720986
2024-02-01T06:45:04.121Z,94.26261927550021
2024-02-01T06:48:24.867Z,94.10994731485425
2024-02-01T06:51:45.397Z,93.89953074138201
2024-02-01T06:57:09.329Z,93.48448483609688
2024-02-01T07:00:30.069Z,93.18076942388515
2024-02-01T07:03:50.490Z,93.41182338523186
2024-02-01T07:07:11.456Z,93.51465653637193
2024-02-01T07:12:23.034Z,93.47679083105155
2024-02-01T07:16:04.086Z,93.56878581774235
2024-02-01T07:19:24.613Z,93.28327212217138
2024-02-01T07:25:24.465Z,92.83528804277721
2024-02-01T07:28:44.427Z,92.87166370422896
2024-02-01T07:35:04.107Z,92.74394010853806
2024-02-01T07:39:39.035Z,92.3849007864532
2024-02-01T07:42:59.293Z,92.38385208201346
2024-02-01T07:47:55.955Z,92.10883248510494
2024-02-01T07:51:22.235Z,92.14592729420643
2024-02-01T07:54:42.750Z,91.93273582965692
2024-02-01T07:58:03.102Z,91.48225923783806
2024-02-01T08:01:44.245Z,91.34617829055018
2024-02-01T08:05:06.471Z,91.20671847803146
2024-02-01T08:08:34.976Z,90.98729710753884
2024-02-01T08:14:16.255Z,91.13391447933571
2024-02-01T08:17:38.303Z,90.75304311644312
2024-02-01T08:21:34.290Z,90.03737760488768
2024-02-01T08:24:54.459Z,89.21427405042078
2024-02-01T08:31:28.443Z,89.44037798212247
2024-02-01T08:34:49.754Z,89.47472573495499
2024-02-01T08:38:10.799Z,89.90408622363302
2024-02-01T08:41:32.436Z,89.73360062388132
2024-02-01T08:44:52.606Z,89.67117579388942
2024-02-01T08:48:13.317Z,89.69589879099605
2024-02-01T08:51:33.845Z,88.86303970295768
2024-02-01T08:54:54.128Z,88.71415932227713
2024-02-01T08:58:15.785Z,88.36739458782459
2024-02-01T09:01:36.760Z,88.0376133222119
2024-02-01T09:04:57.399Z,88.10087859997893
2024-02-01T09:10:44.790Z,87.89921355946677
2024-02-01T09:16:05.452Z,87.87786755939979
2024-02-01T09:19:26.694Z,87.69813007782442
2024-02-01T09:22:47.384Z,86.80560171807923
2024-02-01T09:26:10.272Z,86.37573392413408
2024-02-01T09:29:31.316Z,86.53175602952983
2024-02-01T09:32:51.451Z,86.2212693306815
2024-02-01T09:36:11.342Z,86.12764150720689
2024-02-01T09:39:33.634Z,86.1488425868283
2024-02-01T09:42:54.818Z,86.15990899631278
2024-02-01T09:46:15.562Z,86.18261040926065
2024-02-01T09:51:01.579Z,86.00701189307628
2024-02-01T09:54:22.173Z,85.72815621101448
2024-02-01T09:57:42.872Z,85.44438117230601
2024-02-01T10:01:03.485Z,85.6078510204662
2024-02-01T10:04:24.957Z,85.55352798041199
2024-02-01T10:07:44.827Z,85.18502101782111
2024-02-01T10:11:05.184Z,85.30081481769176
2024-02-01T10:14:26.059Z,84.81537477552932
2024-02-01T10:20:04.806Z,84.28886720985096
2024-02-01T10:23:25.782Z,84.64283630815112
2024-02-01T10:27:27.301Z,83.78145341551945
2024-02-01T10:30:49.887Z,83.55617310635981
2024-02-01T10:34:12.876Z,83.48053995270705
2024-02-01T10:37:36.063Z,83.38454763925729
2024-02-01T10:40:55.605Z,83.13236636343873
2024-02-01T10:44:16.724Z,83.11366921381487
2024-02-01T10:47:37.829Z,82.04886016745402
2024-02-01T10:50:58.157Z,81.6685203878515
2024-02-01T10:54:18.657Z,81.23957758640589
2024-02-01T10:57:38.281Z,80.84438860286828
2024-02-01T11:00:58.872Z,80.18602101580026
2024-02-01T11:04:19.333Z,80.344799305456
2024-02-01T11:10:44.512Z,79.86643588780638
2024-02-01T11:14:04.667Z,80.06305799503136
2024-02-01T11:17:25.889Z,80.14276191653764
2024-02-01T11:20:45.953Z,79.7392829929999
2024-02-01T11:24:06.015Z,79.1017811438357
2024-02-01T11:27:26.372Z,78.34716069695193
2024-02-01T11:30:46.279Z,78.38584159825582
2024-02-01T11:34:06.383Z,78.33867282096031
2024-02-01T11:37:29.262Z,77.1165199437944
2024-02-01T11:40:50.719Z,76.89611967181634
2024-02-01T11:44:11.116Z,77.4986119657229
2024-02-01T11:48:29.766Z,75.85559415260977
2024-02-01T11:51:50.196Z,76.32941990935822
2024-02-01T11:55:09.926Z,75.94313566267653
2024-02-01T11:58:31.024Z,76.09660095809754
2024-02-01T12:01:51.022Z,76.53770066421488
2024-02-01T12:05:11.257Z,75.91621009185452
2024-02-01T12:08:34.326Z,75.40469851435094
2024-02-01T12:11:55.430Z,74.81772301190989
2024-02-01T12:15:15.628Z,74.68466887241337
2024-02-01T12:18:35.904Z,74.77280332865071
2024-02-01T12:21:56.578Z,74.48567181724282
2024-02-01T12:25:17.475Z,75.39490451690607
2024-02-01T12:29:38.572Z,75.72930628600932
2024-02-01T12:32:59.267Z,75.83901521294439
2024-02-01T12:36:20.221Z,75.04639761488271
2024-02-01T12:39:40.057Z,75.37152128075947
2024-02-01T12:43:00.588Z,74.4367791642616
2024-02-01T12:46:44.570Z,73.50493517402569
2024-02-01T12:50:04.824Z,74.16821677623496
2024-02-01T12:53:25.944Z,73.06816113741239
2024-02-01T12:56:46.232Z,73.08553089772282
2024-02-01T13:00:06.196Z,74.2576190508795
2024-02-01T13:06:09.652Z,74.5189260259237
2024-02-01T13:09:31.361Z,73.92308960444647
2024-02-01T13:12:51.770Z,74.59184824966675
2024-02-01T13:16:11.989Z,74.62143847978643
2024-02-01T13:22:45.147Z,74.476418929641
2024-02-01T13:26:05.760Z,73.6908453993872
2024-02-01T13:29:27.025Z,73.70868120587555
2024-02-01T13:38:48.999Z,72.98641717239948
2024-02-01T13:42:10.030Z,73.48448502667908
2024-02-01T13:45:30.707Z,73.32825096691384
2024-02-01T13:48:51.490Z,72.8983521919238
2024-02-01T13:52:11.985Z,73.12201292891899
2024-02-01T13:57:39.432Z,72.69401807788142
2024-02-01T14:00:59.888Z,71.84042197678313
2024-02-01T14:04:21.063Z,72.22346410485636
2024-02-01T14:07:40.957Z,72.16822849331042
2024-02-01T14:11:01.316Z,71.85723131014032
2024-02-01T14:14:23.332Z,72.18020971225177
2024-02-01T14:17:43.925Z,71.76169483543002
2024-02-01T14:21:04.093Z,71.46985629395107
2024-02-01T14:24:26.118Z,71.03136820313739
2024-02-01T14:27:46.566Z,70.8679560188414
2024-02-01T14:31:06.432Z,70.76104767532304
2024-02-01T14:34:27.556Z,70.85002380186131
2024-02-01T14:37:48.504Z,71.23015092750418
2024-02-01T14:41:08.663Z,71.32931289243179
2024-02-01T14:44:29.323Z,70.43967934881807
2024-02-01T14:47:49.055Z,70.4395994432653
2024-02-01T14:51:08.890Z,69.87272297628239
2024-02-01T14:54:29.495Z,70.39454737732923
2024-02-01T14:57:49.580Z,70.89283129940341
2024-02-01T15:03:23.969Z,71.44407542101925
2024-02-01T15:06:44.521Z,71.2608525839724
2024-02-01T15:10:04.935Z,70.6023035862229
2024-02-01T15:13:26.038Z,70.81739050529545
2024-02-01T15:16:46.123Z,70.75737566972667
2024-02-01T15:21:34.194Z,72.38505765961493
2024-02-01T15:24:54.629Z,73.04727133038466
2024-02-01T15:32:01.990Z,73.50423096661409
2024-02-01T15:35:23.066Z,73.21489627969513
2024-02-01T15:41:23.957Z,73.8655106619648
2024-02-01T15:44:50.567Z,73.56850066659253
2024-02-01T15:48:27.574Z,74.38553043596393
2024-02-01T15:51:48.863Z,74.86328946106428
2024-02-01T15:55:08.808Z,75.29825039908823
2024-02-01T15:58:30.039Z,75.88029586999528
2024-02-01T16:01:50.496Z,76.50134784499195
2024-02-01T16:05:10.980Z,77.1096576283562
2024-02-01T16:08:31.668Z,77.8424520979031
2024-02-01T16:11:52.083Z,78.40749778891248
2024-02-01T16:16:31.617Z,79.11790950744714
2024-02-01T16:19:52.201Z,79.36241036981804
2024-02-01T16:23:12.733Z,79.39077878306878
2024-02-01T16:26:33.520Z,79.51985241329582
2024-02-01T16:29:54.163Z,79.8825215168316
2024-02-01T16:33:14.131Z,80.38138508735472
2024-02-01T16:36:34.441Z,80.58123698932707
2024-02-01T16:39:54.974Z,80.84758213949318
2024-02-01T16:43:15.390Z,81.30621829320924
2024-02-01T16:46:36.366Z,81.18674121353136
2024-02-01T16:51:20.790Z,81.2838280103635
2024-02-01T17:03:20.641Z,82.02197452925162
2024-02-01T17:15:30.810Z,82.74274075092994
2024-02-01T17:18:50.510Z,82.9132840779675
2024-02-01T17:22:11.005Z,83.14094361813473
2024-02-01T17:25:31.546Z,83.58479724045881
2024-02-01T17:28:51.632Z,83.7288519270824
2024-02-01T17:43:02.671Z,84.02760579329875
2024-02-01T17:46:24.064Z,84.19709664345048
2024-02-01T17:49:44.494Z,84.3503358493263
2024-02-01T17:58:40.540Z,84.30508227718362
2024-02-01T18:07:57.964Z,84.57969802713325
2024-02-01T18:11:19.003Z,85.05618268455332
2024-02-01T18:14:39.176Z,85.27004520864274
2024-02-01T18:17:59.632Z,85.54694640219735
2024-02-01T18:21:21.925Z,85.81555207993287
2024-02-01T18:24:42.865Z,85.88668132556607
2024-02-01T18:28:04.659Z,86.15129637942984
2024-02-01T18:31:26.154Z,86.21312801061876
2024-02-01T18:34:47.760Z,86.54172350714425
2024-02-01T18:40:43.895Z,86.60589970386768
2024-02-01T18:44:03.951Z,86.6917073902853
2024-02-01T18:49:27.710Z,86.74898972215627
2024-02-01T18:52:49.132Z,86.8393179165765
2024-02-01T18:56:09.625Z,86.74922244458777
2024-02-01T18:59:30.481Z,87.00689385703174
2024-02-01T19:02:50.785Z,87.0526528051626
2024-02-01T19:06:10.828Z,86.88375087739394
2024-02-01T19:09:31.521Z,86.88371204765353
2024-02-01T19:12:51.775Z,86.8238995688544
2024-02-01T19:16:11.728Z,87.06418446444215
2024-02-01T19:19:32.767Z,87.25467990651595
2024-02-01T19:22:53.202Z,87.46703053646218
2024-02-01T19:26:34.545Z,87.19723320401694
2024-02-01T19:29:54.875Z,87.79284981562415
2024-02-01T19:33:16.046Z,87.52476526305816
2024-02-01T19:36:36.930Z,87.71692687631636
2024-02-01T19:43:10.780Z,87.79767340915978
2024-02-01T19:46:31.621Z,88.13064931630186
2024-02-01T19:49:51.629Z,88.10065485640398
2024-02-01T19:53:11.685Z,88.24370155912837
2024-02-01T19:56:33.155Z,88.32579295267571
2024-02-01T19:59:53.364Z,88.14912362471593
2024-02-01T20:03:13.806Z,88.23633887730114
2024-02-01T20:06:34.604Z,88.8864350642787
2024-02-01T20:10:11.343Z,89.03134927518984
2024-02-01T20:16:44.410Z,88.91125105382815
2024-02-01T20:20:07.290Z,88.84912111074739
2024-02-01T20:23:30.766Z,89.0540698728255
2024-02-01T20:26:51.701Z,89.32973929751863
2024-02-01T20:30:12.417Z,89.5342214381887
2024-02-01T20:33:32.654Z,89.51351014974527
2024-02-01T20:36:53.300Z,89.56102951159635
2024-02-01T20:40:13.958Z,89.6937061292739
2024-02-01T20:43:34.474Z,89.36221042703654
2024-02-01T20:46:54.401Z,89.59766744983139
2024-02-01T20:50:14.356Z,89.77108217457624
2024-02-01T20:53:34.632Z,89.94101423357276
2024-02-01T20:56:54.716Z,89.8533433811994
2024-02-01T21:00:15.500Z,89.89095049586112
2024-02-01T21:03:36.378Z,90.0076019717428
2024-02-01T21:06:57.298Z,89.95356393196104
2024-02-01T21:10:18.622Z,89.82408790881956
2024-02-01T21:15:06.103Z,89.79406259037229
2024-02-01T21:18:26.872Z,89.81170262847299
2024-02-01T21:21:48.003Z,89.93120307091836
2024-02-01T21:25:07.904Z,89.93733718309866
2024-02-01T21:28:28.746Z,89.83556021144118
2024-02-01T21:32:10.906Z,89.86955880985212
2024-02-01T21:35:33.097Z,89.72042957092889
2024-02-01T21:38:54.033Z,89.49322325616458
2024-02-01T21:42:14.285Z,89.37929679348599
2024-02-01T21:45:35.714Z,89.29414524009427
2024-02-01T21:48:56.103Z,89.60536848224746
2024-02-01T21:52:17.448Z,89.73840502647457
2024-02-01T21:55:38.597Z,89.9579657902895
2024-02-01T21:58:58.821Z,89.78586912282543
2024-02-01T22:02:19.530Z,89.71552085878534
2024-02-01T22:05:40.249Z,89.55443973493345
2024-02-01T22:09:01.025Z,89.66716822523765
2024-02-01T22:12:22.341Z,89.43811759823329
2024-02-01T22:15:43.157Z,89.19771815228682
2024-02-01T22:19:03.454Z,89.17576194426366
2024-02-01T22:22:23.170Z,88.95651384260633
2024-02-01T22:25:43.521Z,88.79180741267126
2024-02-01T22:29:03.068Z,88.60860257542814
2024-02-01T22:32:24.094Z,88.43221934643061
2024-02-01T22:38:38.160Z,88.22461581640343
2024-02-01T22:41:58.439Z,88.27922288054994
2024-02-01T22:45:19.129Z,87.9511831189849
2024-02-01T22:48:40.022Z,87.84454775954124
2024-02-01T22:53:31.544Z,87.55115809945862
2024-02-01T22:56:51.503Z,87.48050881514015
2024-02-01T23:00:11.760Z,87.33503082976091
2024-02-01T23:03:32.805Z,87.19649283909092
2024-02-01T23:06:52.762Z,87.41776120842371
2024-02-01T23:10:12.787Z,87.41867496934
2024-02-01T23:13:33.347Z,87.07773851477246
2024-02-01T23:16:52.918Z,86.79372014503443
2024-02-01T23:23:11.871Z,86.71681851400476
2024-02-01T23:26:49.477Z,86.83756740897957
2024-02-01T23:30:09.447Z,86.6728800320102
2024-02-01T23:33:30.494Z,86.43901793858716
2024-02-01T23:36:50.600Z,86.33004176923511
2024-02-01T23:40:10.550Z,86.46971788500166
2024-02-01T23:43:30.914Z,86.34144269870156
2024-02-01T23:46:50.954Z,86.25417988662946
2024-02-01T23:50:11.049Z,86.53826804175125
2024-02-01T23:53:32.122Z,86.40663771052395
2024-02-01T23:56:52.154Z,86.24347374738605
